createdAt,value
2017-08-09T00:00:37.645Z,64.07
2017-08-09T00:01:47.997Z,63.98
2017-08-09T00:02:58.036Z,63.89
2017-08-09T00:04:08.392Z,63.79
2017-08-09T00:05:18.835Z,64.27
2017-08-09T00:06:29.171Z,63.98
2017-08-09T00:07:39.513Z,64.37
2017-08-09T00:08:49.859Z,64.53
2017-08-09T00:10:00.194Z,64.07
2017-08-09T00:11:10.586Z,64.27
2017-08-09T00:12:20.323Z,64.04
2017-08-09T00:13:30.056Z,64.37
2017-08-09T00:14:40.397Z,64.27
2017-08-09T00:15:50.422Z,64.14
2017-08-09T00:17:00.819Z,64.04
2017-08-09T00:18:11.187Z,64.43
2017-08-09T00:19:21.221Z,64.24
2017-08-09T00:20:31.586Z,64.14
2017-08-09T00:21:41.949Z,64.04
2017-08-09T00:22:52.341Z,64.17
2017-08-09T00:24:02.362Z,64.47
2017-08-09T00:25:12.076Z,64.04
2017-08-09T00:26:22.413Z,64.56
2017-08-09T00:27:32.758Z,63.98
2017-08-09T00:28:42.854Z,64.07
2017-08-09T00:29:53.206Z,63.69
2017-08-09T00:31:03.228Z,63.98
2017-08-09T00:32:13.570Z,63.98
2017-08-09T00:33:24.219Z,64.27
2017-08-09T00:34:34.318Z,64.04
2017-08-09T00:35:44.358Z,63.98
2017-08-09T00:36:55.951Z,64.17
2017-08-09T00:38:06.309Z,63.98
2017-08-09T00:39:16.661Z,64.17
2017-08-09T00:40:27.091Z,64.17
2017-08-09T00:41:37.443Z,64.34
2017-08-09T00:42:47.803Z,64.43
2017-08-09T00:43:58.148Z,64.56
2017-08-09T00:45:08.490Z,64.07
2017-08-09T00:46:18.889Z,63.98
2017-08-09T00:47:29.252Z,64.17
2017-08-09T00:48:39.278Z,64.27
2017-08-09T00:49:49.637Z,64.24
2017-08-09T00:50:59.983Z,64.27
2017-08-09T00:52:11.421Z,64.27
2017-08-09T00:53:22.001Z,64.34
2017-08-09T00:54:32.032Z,64.56
2017-08-09T00:55:42.066Z,64.75
2017-08-09T00:56:52.432Z,64.66
2017-08-09T00:58:02.813Z,64.17
2017-08-09T00:59:13.155Z,64.17
2017-08-09T01:00:22.868Z,64.95
2017-08-09T01:01:33.223Z,64.27
2017-08-09T01:02:43.571Z,64.85
2017-08-09T01:03:53.963Z,64.95
2017-08-09T01:05:04.301Z,64.37
2017-08-09T01:06:14.641Z,64.53
2017-08-09T01:07:25.001Z,64.75
2017-08-09T01:08:35.353Z,64.53
2017-08-09T01:09:45.451Z,64.17
2017-08-09T01:10:55.472Z,64.56
2017-08-09T01:12:05.820Z,64.14
2017-08-09T01:13:16.169Z,64.17
2017-08-09T01:14:26.518Z,64.53
2017-08-09T01:15:36.915Z,64.66
2017-08-09T01:16:46.964Z,64.56
2017-08-09T01:17:56.989Z,64.56
2017-08-09T01:19:07.325Z,64.75
2017-08-09T01:20:17.671Z,64.56
2017-08-09T01:21:28.071Z,64.14
2017-08-09T01:22:38.405Z,64.75
2017-08-09T01:23:48.431Z,64.66
2017-08-09T01:24:58.769Z,64.53
2017-08-09T01:26:09.116Z,64.66
2017-08-09T01:27:20.305Z,64.53
2017-08-09T01:28:30.336Z,64.75
2017-08-09T01:29:40.375Z,64.75
2017-08-09T01:30:50.723Z,64.82
2017-08-09T01:32:01.066Z,64.62
2017-08-09T01:33:11.461Z,64.72
2017-08-09T01:34:21.803Z,64.53
2017-08-09T01:35:32.153Z,64.43
2017-08-09T01:36:42.494Z,64.72
2017-08-09T01:37:52.513Z,64.72
2017-08-09T01:39:02.905Z,64.72
2017-08-09T01:40:13.252Z,64.72
2017-08-09T01:41:22.973Z,64.43
2017-08-09T01:42:33.005Z,64.72
2017-08-09T01:43:43.383Z,64.72
2017-08-09T01:44:54.184Z,64.72
2017-08-09T01:46:04.527Z,64.43
2017-08-09T01:47:14.552Z,64.62
2017-08-09T01:48:24.282Z,64.62
2017-08-09T01:49:34.633Z,64.72
2017-08-09T01:50:45.026Z,64.53
2017-08-09T01:51:55.392Z,64.72
2017-08-09T01:53:05.745Z,64.62
2017-08-09T01:54:17.867Z,64.43
2017-08-09T01:55:28.207Z,64.72
2017-08-09T01:56:38.597Z,64.43
2017-08-09T01:57:48.945Z,64.72
2017-08-09T01:58:59.289Z,64.72
2017-08-09T02:00:09.625Z,64.62
2017-08-09T02:01:19.663Z,64.62
2017-08-09T02:02:29.744Z,64.72
2017-08-09T02:03:39.786Z,64.43
2017-08-09T02:04:50.144Z,64.72
2017-08-09T02:06:00.173Z,64.82
2017-08-09T02:07:10.537Z,64.82
2017-08-09T02:08:20.316Z,64.34
2017-08-09T02:09:31.878Z,64.82
2017-08-09T02:10:43.379Z,64.82
2017-08-09T02:11:53.710Z,64.69
2017-08-09T02:13:04.057Z,64.59
2017-08-09T02:14:14.153Z,64.5
2017-08-09T02:15:24.484Z,64.4
2017-08-09T02:16:34.839Z,64.59
2017-08-09T02:17:45.169Z,64.5
2017-08-09T02:18:55.515Z,64.69
2017-08-09T02:20:05.598Z,64.69
2017-08-09T02:21:15.936Z,64.5
2017-08-09T02:22:26.286Z,64.5
2017-08-09T02:23:36.001Z,64.59
2017-08-09T02:24:46.334Z,64.89
2017-08-09T02:25:56.731Z,64.69
2017-08-09T02:27:06.784Z,64.85
2017-08-09T02:28:17.136Z,64.56
2017-08-09T02:29:27.482Z,64.27
2017-08-09T02:30:37.824Z,64.56
2017-08-09T02:31:47.909Z,64.66
2017-08-09T02:32:58.705Z,64.47
2017-08-09T02:34:09.062Z,64.66
2017-08-09T02:35:19.419Z,64.66
2017-08-09T02:36:29.763Z,64.47
2017-08-09T02:37:40.145Z,64.37
2017-08-09T02:38:50.509Z,64.76
2017-08-09T02:40:00.854Z,64.85
2017-08-09T02:41:10.894Z,64.76
2017-08-09T02:42:21.240Z,64.76
2017-08-09T02:43:31.648Z,64.27
2017-08-09T02:44:41.992Z,64.85
2017-08-09T02:45:52.010Z,64.66
2017-08-09T02:47:01.742Z,64.63
2017-08-09T02:48:11.772Z,64.76
2017-08-09T02:49:22.173Z,64.63
2017-08-09T02:50:32.518Z,64.43
2017-08-09T02:51:42.868Z,64.24
2017-08-09T02:52:53.211Z,64.34
2017-08-09T02:54:03.551Z,64.63
2017-08-09T02:55:15.297Z,64.14
2017-08-09T02:56:25.624Z,64.47
2017-08-09T02:57:35.670Z,64.63
2017-08-09T02:58:46.024Z,64.63
2017-08-09T02:59:56.368Z,64.24
2017-08-09T03:01:07.163Z,64.72
2017-08-09T03:33:46.569Z,62.16
2017-08-09T03:34:58.114Z,63.22
2017-08-09T03:36:08.443Z,63.7
2017-08-09T03:37:21.831Z,64.18
2017-08-09T03:38:32.167Z,63.99
2017-08-09T03:39:42.561Z,64.18
2017-08-09T03:40:52.896Z,64.76
2017-08-09T03:42:03.225Z,64.89
2017-08-09T03:43:13.562Z,64.5
2017-08-09T03:44:23.909Z,64.59
2017-08-09T03:45:34.335Z,64.63
2017-08-09T03:46:44.672Z,64.53
2017-08-09T03:47:55.020Z,64.95
2017-08-09T03:49:05.356Z,64.76
2017-08-09T03:50:17.199Z,64.86
2017-08-09T03:51:27.271Z,64.95
2017-08-09T03:52:37.300Z,64.89
2017-08-09T03:53:48.434Z,64.79
2017-08-09T03:54:58.480Z,64.31
2017-08-09T03:56:08.828Z,64.53
2017-08-09T03:57:18.915Z,64.34
2017-08-09T03:58:29.272Z,64.63
2017-08-09T03:59:39.604Z,64.18
2017-08-09T04:00:49.630Z,63.98
2017-08-09T04:01:59.659Z,64.56
2017-08-09T04:03:10.057Z,64.66
2017-08-09T04:04:20.097Z,64.18
2017-08-09T04:05:30.443Z,64.76
2017-08-09T04:06:40.464Z,64.37
2017-08-09T04:07:50.808Z,64.11
2017-08-09T04:09:00.877Z,64.21
2017-08-09T04:10:10.919Z,64.31
2017-08-09T04:11:21.256Z,64.11
2017-08-09T04:12:31.594Z,63.76
2017-08-09T04:13:41.957Z,63.66
2017-08-09T04:14:52.353Z,63.66
2017-08-09T04:16:02.707Z,63.95
2017-08-09T04:17:12.736Z,63.76
2017-08-09T04:18:23.108Z,63.56
2017-08-09T04:19:33.443Z,63.56
2017-08-09T04:20:43.855Z,63.47
2017-08-09T04:21:53.879Z,63.79
2017-08-09T04:23:03.606Z,63.89
2017-08-09T04:24:13.647Z,63.79
2017-08-09T04:25:24.002Z,63.69
2017-08-09T04:26:34.389Z,63.98
2017-08-09T04:27:44.736Z,63.79
2017-08-09T04:28:55.081Z,64.01
2017-08-09T04:30:05.432Z,63.63
2017-08-09T04:31:15.479Z,63.53
2017-08-09T04:32:25.871Z,63.82
2017-08-09T04:33:36.228Z,63.43
2017-08-09T04:34:46.257Z,63.76
2017-08-09T04:35:56.593Z,63.08
2017-08-09T04:37:06.929Z,62.98
2017-08-09T04:38:17.033Z,62.69
2017-08-09T04:39:27.058Z,63.46
2017-08-09T04:40:37.419Z,63.27
2017-08-09T04:41:47.750Z,63.08
2017-08-09T04:42:58.089Z,63.01
2017-08-09T04:44:08.489Z,63.21
2017-08-09T04:45:18.519Z,63.49
2017-08-09T04:46:28.875Z,63.49
2017-08-09T04:47:39.216Z,62.53
2017-08-09T04:48:49.552Z,62.56
2017-08-09T04:49:59.960Z,62.37
2017-08-09T04:51:10.296Z,62.1
2017-08-09T04:52:20.346Z,62.1
2017-08-09T04:53:30.071Z,61.26
2017-08-09T04:54:40.416Z,60.55
2017-08-09T04:55:50.826Z,60.38
2017-08-09T04:57:01.175Z,59.67
2017-08-09T04:58:13.170Z,59.86
2017-08-09T04:59:23.193Z,59.79
2017-08-09T05:00:33.223Z,59.82
2017-08-09T05:01:43.308Z,59.85
2017-08-09T05:02:53.639Z,59.85
2017-08-09T05:04:03.667Z,59.88
2017-08-09T05:05:13.722Z,59.98
2017-08-09T05:06:24.063Z,59.78
2017-08-09T05:07:34.476Z,59.91
2017-08-09T05:08:44.837Z,59.94
2017-08-09T05:09:54.879Z,59.84
2017-08-09T05:11:04.608Z,60.06
2017-08-09T05:12:14.650Z,59.97
2017-08-09T05:13:24.723Z,60
2017-08-09T05:14:34.756Z,59.9
2017-08-09T05:15:44.787Z,60.22
2017-08-09T05:16:54.825Z,60.03
2017-08-09T05:18:04.866Z,60.13
2017-08-09T05:19:15.364Z,60.16
2017-08-09T05:20:25.718Z,59.96
2017-08-09T05:21:36.065Z,60.16
2017-08-09T05:22:45.789Z,60.18
2017-08-09T05:23:55.829Z,60.18
2017-08-09T05:25:06.218Z,60.08
2017-08-09T05:26:16.570Z,60.18
2017-08-09T05:27:26.915Z,60.08
2017-08-09T05:28:37.255Z,60.21
2017-08-09T05:29:47.598Z,60.11
2017-08-09T05:30:57.996Z,60.5
2017-08-09T05:32:08.352Z,60.6
2017-08-09T05:33:18.700Z,60.5
2017-08-09T05:34:28.755Z,60.31
2017-08-09T05:35:39.108Z,60.99
2017-08-09T05:36:49.505Z,60.89
2017-08-09T05:37:59.864Z,61.77
2017-08-09T05:39:09.586Z,62.66
2017-08-09T05:40:19.935Z,61.56
2017-08-09T05:41:30.281Z,60.84
2017-08-09T05:42:40.672Z,61.13
2017-08-09T05:43:50.729Z,60.77
2017-08-09T05:45:01.087Z,60.67
2017-08-09T05:46:11.134Z,61.06
2017-08-09T05:47:21.496Z,60.77
2017-08-09T05:48:31.901Z,60.6
2017-08-09T05:49:42.259Z,60.21
2017-08-09T05:50:52.597Z,60.14
2017-08-09T05:52:02.952Z,60.83
2017-08-09T05:53:13.318Z,61.41
2017-08-09T05:54:23.089Z,60.89
2017-08-09T05:55:33.429Z,60.24
2017-08-09T05:56:43.765Z,60.17
2017-08-09T05:57:54.111Z,60.27
2017-08-09T05:59:04.454Z,60.93
2017-08-09T06:00:15.594Z,60.93
2017-08-09T06:01:25.947Z,60.83
2017-08-09T06:02:36.300Z,61.12
2017-08-09T06:03:46.649Z,61.97
2017-08-09T06:04:57.026Z,62.5
2017-08-09T06:06:07.423Z,63.41
2017-08-09T06:07:17.770Z,63.41
2017-08-09T06:08:27.808Z,63.54
2017-08-09T06:09:38.173Z,63.54
2017-08-09T06:10:48.520Z,63.51
2017-08-09T06:11:58.614Z,63.71
2017-08-09T06:13:08.964Z,63.87
2017-08-09T06:14:19.018Z,63.68
2017-08-09T06:15:29.364Z,63.06
2017-08-09T06:16:39.405Z,63.26
2017-08-09T06:17:49.509Z,62.96
2017-08-09T06:18:59.856Z,63.26
2017-08-09T06:20:10.199Z,62.77
2017-08-09T06:21:20.244Z,63.06
2017-08-09T06:22:30.594Z,62.38
2017-08-09T06:23:40.679Z,62.87
2017-08-09T06:24:50.398Z,61.8
2017-08-09T06:26:01.100Z,61.9
2017-08-09T06:27:11.456Z,62.19
2017-08-09T06:28:21.544Z,61.9
2017-08-09T06:29:31.638Z,62.19
2017-08-09T06:30:41.377Z,62.96
2017-08-09T06:31:51.402Z,62.96
2017-08-09T06:33:01.750Z,62.67
2017-08-09T06:34:12.096Z,62.48
2017-08-09T06:35:22.729Z,62.45
2017-08-09T06:36:33.077Z,62.64
2017-08-09T06:37:43.421Z,62.38
2017-08-09T06:38:53.448Z,62.74
2017-08-09T06:40:03.502Z,62.74
2017-08-09T06:41:13.288Z,62.84
2017-08-09T06:42:23.643Z,61.87
2017-08-09T06:43:34.000Z,61.8
2017-08-09T06:44:44.036Z,62.16
2017-08-09T06:45:54.063Z,61.99
2017-08-09T06:47:04.146Z,62.09
2017-08-09T06:48:14.169Z,61.99
2017-08-09T06:49:24.508Z,61.99
2017-08-09T06:50:34.864Z,62.09
2017-08-09T06:51:44.917Z,61.9
2017-08-09T06:52:55.310Z,61.8
2017-08-09T06:54:05.027Z,62.09
2017-08-09T06:55:15.387Z,62.67
2017-08-09T06:56:25.734Z,61.9
2017-08-09T06:57:35.781Z,62.19
2017-08-09T06:58:46.170Z,61.9
2017-08-09T06:59:56.510Z,61.99
2017-08-09T07:01:06.550Z,61.9
2017-08-09T07:02:16.579Z,61.8
2017-08-09T07:03:26.644Z,61.73
2017-08-09T07:04:37.042Z,61.93
2017-08-09T07:05:47.382Z,61.44
2017-08-09T07:06:57.122Z,61.54
2017-08-09T07:08:07.471Z,61.63
2017-08-09T07:09:17.817Z,61.96
2017-08-09T07:10:28.224Z,61.37
2017-08-09T07:11:38.262Z,61.6
2017-08-09T07:12:48.299Z,61.69
2017-08-09T07:13:58.660Z,61.69
2017-08-09T07:15:09.009Z,61.6
2017-08-09T07:16:19.414Z,61.11
2017-08-09T07:17:29.770Z,60.94
2017-08-09T07:18:40.138Z,61.17
2017-08-09T07:19:50.494Z,60.97
2017-08-09T07:21:00.865Z,61.76
2017-08-09T07:22:11.257Z,60.88
2017-08-09T07:23:21.605Z,61.46
2017-08-09T07:24:31.947Z,61.85
2017-08-09T07:25:44.108Z,61.27
2017-08-09T07:26:54.461Z,61.46
2017-08-09T07:28:04.871Z,61.46
2017-08-09T07:29:14.903Z,61.92
2017-08-09T07:30:24.939Z,61.76
2017-08-09T07:31:35.291Z,61.76
2017-08-09T07:32:45.329Z,61.76
2017-08-09T07:33:55.406Z,61.85
2017-08-09T07:35:06.201Z,61.53
2017-08-09T07:36:16.542Z,61.92
2017-08-09T07:37:26.895Z,61.63
2017-08-09T07:38:36.924Z,62.12
2017-08-09T07:39:47.315Z,61.72
2017-08-09T07:40:57.663Z,61.82
2017-08-09T07:42:08.008Z,62.02
2017-08-09T07:43:18.367Z,61.72
2017-08-09T07:44:28.092Z,62.12
2017-08-09T07:45:38.480Z,62.12
2017-08-09T07:46:48.844Z,61.82
2017-08-09T07:47:59.203Z,61.82
2017-08-09T07:49:09.245Z,61.89
2017-08-09T07:50:19.602Z,61.89
2017-08-09T07:51:29.999Z,61.99
2017-08-09T07:52:40.351Z,62.08
2017-08-09T07:53:50.694Z,61.99
2017-08-09T07:55:00.731Z,61.99
2017-08-09T07:56:11.089Z,62.08
2017-08-09T07:57:21.353Z,61.89
2017-08-09T07:58:31.700Z,61.69
2017-08-09T07:59:42.051Z,62.02
2017-08-09T08:00:52.103Z,61.82
2017-08-09T08:02:02.152Z,61.82
2017-08-09T08:03:14.601Z,61.72
2017-08-09T08:04:24.631Z,61.53
2017-08-09T08:05:34.680Z,61.66
2017-08-09T08:06:44.716Z,62.05
2017-08-09T08:07:54.753Z,62.05
2017-08-09T08:09:05.170Z,61.66
2017-08-09T08:10:15.530Z,61.69
2017-08-09T08:11:25.865Z,61.49
2017-08-09T08:12:36.212Z,61.36
2017-08-09T08:13:46.556Z,61.4
2017-08-09T08:14:56.643Z,61.4
2017-08-09T08:16:08.459Z,61.59
2017-08-09T08:17:18.515Z,61.3
2017-08-09T08:18:30.777Z,61.59
2017-08-09T08:19:41.110Z,61.49
2017-08-09T08:20:53.425Z,61.2
2017-08-09T08:22:03.463Z,61.33
2017-08-09T08:23:13.812Z,61.2
2017-08-09T08:24:23.543Z,61.52
2017-08-09T08:25:33.581Z,61.52
2017-08-09T08:26:43.998Z,61.52
2017-08-09T08:27:54.037Z,61.62
2017-08-09T08:29:04.398Z,61.62
2017-08-09T08:30:14.441Z,61.33
2017-08-09T08:31:24.790Z,61.33
2017-08-09T08:32:35.135Z,61.84
2017-08-09T08:33:45.202Z,61.74
2017-08-09T08:34:55.243Z,61.65
2017-08-09T08:36:05.612Z,61.16
2017-08-09T08:37:16.005Z,61.09
2017-08-09T08:38:26.360Z,61.74
2017-08-09T08:39:36.720Z,61.29
2017-08-09T08:40:47.087Z,61.29
2017-08-09T08:41:57.459Z,61.19
2017-08-09T08:43:07.899Z,61.09
2017-08-09T08:44:17.951Z,61.19
2017-08-09T08:45:28.295Z,61.09
2017-08-09T08:46:38.345Z,60.99
2017-08-09T08:47:48.714Z,61.09
2017-08-09T08:48:58.506Z,61.38
2017-08-09T08:50:08.542Z,61.58
2017-08-09T08:51:18.883Z,61.48
2017-08-09T08:52:28.935Z,61.38
2017-08-09T08:53:39.282Z,61.32
2017-08-09T08:54:49.373Z,61.22
2017-08-09T08:55:59.411Z,61.12
2017-08-09T08:57:09.452Z,60.96
2017-08-09T08:58:19.805Z,60
2017-08-09T08:59:30.156Z,59.94
2017-08-09T09:00:40.249Z,59.11
2017-08-09T09:01:50.600Z,59.24
2017-08-09T09:03:00.639Z,59.73
2017-08-09T09:04:10.993Z,59.83
2017-08-09T09:05:21.046Z,59.92
2017-08-09T09:06:31.461Z,60.68
2017-08-09T09:07:41.506Z,60.39
2017-08-09T09:08:51.886Z,60.29
2017-08-09T09:10:02.243Z,60.32
2017-08-09T09:11:12.290Z,60.32
2017-08-09T09:12:22.730Z,60.22
2017-08-09T09:13:32.775Z,60.22
2017-08-09T09:14:43.124Z,60.71
2017-08-09T09:15:53.490Z,61.18
2017-08-09T09:17:03.223Z,60.97
2017-08-09T09:18:13.314Z,61.07
2017-08-09T09:19:23.036Z,60.88
2017-08-09T09:20:33.415Z,61.18
2017-08-09T09:21:43.785Z,61.37
2017-08-09T09:22:54.131Z,61.44
2017-08-09T09:24:04.537Z,60.85
2017-08-09T09:25:14.578Z,61.99
2017-08-09T09:26:24.305Z,61.99
2017-08-09T09:27:34.670Z,61.87
2017-08-09T09:28:44.708Z,62.26
2017-08-09T09:29:54.791Z,62.32
2017-08-09T09:31:05.139Z,62.32
2017-08-09T09:32:15.488Z,62.03
2017-08-09T09:33:25.846Z,61.87
2017-08-09T09:34:36.185Z,61.28
2017-08-09T09:35:46.609Z,61.21
2017-08-09T09:36:56.982Z,60.82
2017-08-09T09:38:07.358Z,61.05
2017-08-09T09:39:17.714Z,60.68
2017-08-09T09:40:28.089Z,60.29
2017-08-09T09:41:38.498Z,59.63
2017-08-09T09:42:48.526Z,59.76
2017-08-09T09:43:58.889Z,59.08
2017-08-09T09:45:09.246Z,58.91
2017-08-09T09:46:19.618Z,59.03
2017-08-09T09:47:30.020Z,59.06
2017-08-09T09:48:40.047Z,59.16
2017-08-09T09:49:50.071Z,60.07
2017-08-09T09:51:00.433Z,60.41
2017-08-09T09:52:10.884Z,60.58
2017-08-09T09:53:21.282Z,61.13
2017-08-09T09:54:31.628Z,61.33
2017-08-09T09:55:41.991Z,61.3
2017-08-09T09:56:51.727Z,61.1
2017-08-09T09:58:01.792Z,61.4
2017-08-09T09:59:11.892Z,61.96
2017-08-09T10:00:21.933Z,61.47
2017-08-09T10:01:32.286Z,61.5
2017-08-09T10:02:42.322Z,61.3
2017-08-09T10:03:52.668Z,61.79
2017-08-09T10:05:02.746Z,61
2017-08-09T10:06:12.814Z,60.45
2017-08-09T10:07:23.193Z,60.28
2017-08-09T10:08:33.550Z,60.77
2017-08-09T10:09:43.905Z,60.38
2017-08-09T10:10:54.320Z,60.41
2017-08-09T10:12:04.360Z,60.5
2017-08-09T10:13:14.719Z,61.1
2017-08-09T10:14:25.319Z,61.46
2017-08-09T10:15:35.364Z,61.04
2017-08-09T10:16:45.761Z,61.26
2017-08-09T10:17:56.123Z,61.36
2017-08-09T10:19:06.467Z,60.97
2017-08-09T10:20:16.822Z,60.77
2017-08-09T10:21:27.183Z,60.9
2017-08-09T10:22:37.267Z,60.5
2017-08-09T10:23:47.653Z,60.53
2017-08-09T10:24:58.007Z,60.05
2017-08-09T10:26:08.069Z,60.27
2017-08-09T10:27:18.415Z,59.51
2017-08-09T10:28:28.812Z,59.34
2017-08-09T10:29:39.172Z,59.34
2017-08-09T10:30:49.538Z,59.34
2017-08-09T10:31:59.888Z,59.47
2017-08-09T10:33:09.944Z,60.26
2017-08-09T10:34:20.303Z,60.72
2017-08-09T10:35:30.675Z,61.29
2017-08-09T10:36:41.069Z,61.25
2017-08-09T10:37:51.430Z,61.16
2017-08-09T10:39:02.610Z,61.65
2017-08-09T10:40:13.068Z,61.52
2017-08-09T10:41:23.896Z,61.61
2017-08-09T10:42:34.305Z,61.42
2017-08-09T10:43:44.354Z,62.08
2017-08-09T10:44:54.709Z,61.76
2017-08-09T10:46:05.064Z,62.41
2017-08-09T10:47:15.628Z,63.36
2017-08-09T10:48:25.711Z,62.67
2017-08-09T10:49:35.778Z,62.08
2017-08-09T10:50:45.830Z,62.18
2017-08-09T10:51:56.189Z,61.99
2017-08-09T10:53:06.227Z,62.28
2017-08-09T10:54:16.329Z,61.89
2017-08-09T10:55:26.681Z,61.3
2017-08-09T10:56:37.036Z,61.4
2017-08-09T10:57:47.407Z,62.02
2017-08-09T10:58:57.757Z,61.72
2017-08-09T11:00:07.876Z,61.1
2017-08-09T11:01:18.225Z,61.04
2017-08-09T11:02:28.277Z,61.63
2017-08-09T11:03:38.304Z,60.38
2017-08-09T11:04:48.660Z,59.26
2017-08-09T11:05:58.743Z,59.12
2017-08-09T11:07:08.793Z,58.36
2017-08-09T11:08:18.832Z,58.59
2017-08-09T11:09:28.560Z,58.51
2017-08-09T11:10:38.922Z,58.42
2017-08-09T11:11:49.027Z,59.01
2017-08-09T11:12:59.378Z,58.81
2017-08-09T11:14:09.423Z,59.5
2017-08-09T11:15:19.801Z,59.3
2017-08-09T11:16:31.880Z,59.96
2017-08-09T11:17:42.307Z,60.16
2017-08-09T11:18:52.029Z,60.06
2017-08-09T11:20:02.391Z,59.96
2017-08-09T11:21:12.435Z,60.46
2017-08-09T11:22:22.807Z,60.46
2017-08-09T11:23:33.238Z,60.33
2017-08-09T11:24:43.609Z,60.63
2017-08-09T11:25:53.970Z,60.42
2017-08-09T11:27:04.332Z,60.89
2017-08-09T11:28:14.369Z,60.89
2017-08-09T11:29:24.462Z,60.99
2017-08-09T11:30:34.829Z,60.69
2017-08-09T11:31:45.190Z,60.69
2017-08-09T11:32:55.548Z,60.99
2017-08-09T11:34:05.920Z,60.99
2017-08-09T11:35:16.026Z,60.82
2017-08-09T11:36:26.389Z,60.99
2017-08-09T11:37:36.430Z,60.72
2017-08-09T11:38:46.474Z,60.6
2017-08-09T11:39:58.019Z,60.82
2017-08-09T11:41:08.514Z,60.82
2017-08-09T11:42:18.878Z,60.99
2017-08-09T11:43:29.243Z,60.92
2017-08-09T11:44:39.586Z,60.5
2017-08-09T11:45:49.935Z,60.52
2017-08-09T11:47:00.369Z,60.63
2017-08-09T11:48:10.740Z,60.63
2017-08-09T11:49:21.092Z,60.55
2017-08-09T11:50:31.434Z,60.55
2017-08-09T11:51:41.477Z,60.65
2017-08-09T11:52:51.883Z,60.36
2017-08-09T11:54:02.246Z,60.65
2017-08-09T11:55:12.610Z,60.55
2017-08-09T11:56:22.961Z,60.55
2017-08-09T11:57:33.330Z,60.58
2017-08-09T11:58:43.734Z,60.58
2017-08-09T11:59:54.084Z,60.68
2017-08-09T12:01:04.942Z,60.68
2017-08-09T12:02:16.498Z,60.58
2017-08-09T12:03:26.839Z,60.61
2017-08-09T12:04:37.202Z,60.68
2017-08-09T12:05:47.264Z,60.81
2017-08-09T12:06:57.307Z,60.78
2017-08-09T12:08:07.669Z,60.81
2017-08-09T12:09:18.033Z,60.81
2017-08-09T12:10:27.822Z,60.61
2017-08-09T12:11:38.180Z,61.08
2017-08-09T12:12:48.226Z,60.88
2017-08-09T12:13:58.599Z,60.98
2017-08-09T12:15:08.948Z,61.27
2017-08-09T12:16:19.372Z,61.54
2017-08-09T12:17:29.728Z,61.24
2017-08-09T12:18:41.142Z,61.54
2017-08-09T12:19:51.508Z,61.24
2017-08-09T12:21:01.550Z,61.05
2017-08-09T12:22:11.946Z,60.49
2017-08-09T12:23:22.315Z,60.68
2017-08-09T12:24:32.685Z,60.58
2017-08-09T12:25:43.033Z,60.91
2017-08-09T12:26:53.383Z,60.61
2017-08-09T12:28:05.815Z,60.52
2017-08-09T12:29:16.166Z,60.54
2017-08-09T12:30:26.553Z,60.61
2017-08-09T12:31:36.917Z,60.61
2017-08-09T12:32:47.271Z,60.61
2017-08-09T12:33:57.672Z,60.71
2017-08-09T12:35:08.023Z,60.71
2017-08-09T12:36:17.471Z,60.71
2017-08-09T12:37:27.835Z,60.52
2017-08-09T12:38:38.175Z,60.52
2017-08-09T12:39:50.143Z,60.61
2017-08-09T12:41:01.746Z,60.71
2017-08-09T12:42:11.467Z,60.81
2017-08-09T12:43:21.806Z,60.54
2017-08-09T12:44:31.842Z,60.61
2017-08-09T12:45:41.949Z,60.74
2017-08-09T12:46:52.307Z,60.84
2017-08-09T12:48:02.661Z,60.54
2017-08-09T12:49:12.717Z,60.61
2017-08-09T12:50:23.078Z,61.11
2017-08-09T12:51:33.172Z,60.81
2017-08-09T12:52:43.553Z,61
2017-08-09T12:53:53.897Z,61
2017-08-09T12:55:04.252Z,60.88
2017-08-09T12:56:13.972Z,60.78
2017-08-09T12:57:24.395Z,60.78
2017-08-09T12:58:34.757Z,60.88
2017-08-09T12:59:45.114Z,60.88
2017-08-09T13:00:55.160Z,60.98
2017-08-09T13:02:05.517Z,60.98
2017-08-09T13:03:17.764Z,60.88
2017-08-09T13:04:27.855Z,61.08
2017-08-09T13:05:37.898Z,60.98
2017-08-09T13:06:48.249Z,60.81
2017-08-09T13:07:58.611Z,60.52
2017-08-09T13:09:09.030Z,60.81
2017-08-09T13:10:20.040Z,60.71
2017-08-09T13:11:30.397Z,60.52
2017-08-09T13:12:40.448Z,60.52
2017-08-09T13:13:50.191Z,60.81
2017-08-09T13:15:00.314Z,60.52
2017-08-09T13:16:10.684Z,60.81
2017-08-09T13:17:20.756Z,60.84
2017-08-09T13:18:31.108Z,60.84
2017-08-09T13:19:41.465Z,60.54
2017-08-09T13:20:51.870Z,60.61
2017-08-09T13:22:02.230Z,60.61
2017-08-09T13:23:12.273Z,60.71
2017-08-09T13:24:22.309Z,61.11
2017-08-09T13:25:32.658Z,61
2017-08-09T13:26:43.081Z,61
2017-08-09T13:27:53.447Z,61.11
2017-08-09T13:29:03.795Z,60.91
2017-08-09T13:30:13.521Z,60.91
2017-08-09T13:31:23.887Z,61.3
2017-08-09T13:32:33.988Z,61.3
2017-08-09T13:33:43.729Z,61.4
2017-08-09T13:34:53.778Z,61.3
2017-08-09T13:36:04.839Z,61.3
2017-08-09T13:37:14.872Z,61.3
2017-08-09T13:38:25.273Z,61.21
2017-08-09T13:39:35.620Z,61.3
2017-08-09T13:40:45.361Z,61.3
2017-08-09T13:41:55.788Z,61
2017-08-09T13:43:06.136Z,60.81
2017-08-09T13:44:16.232Z,61.11
2017-08-09T13:45:26.608Z,61.11
2017-08-09T13:46:36.972Z,61.21
2017-08-09T13:47:47.328Z,61.11
2017-08-09T13:48:57.674Z,61.3
2017-08-09T13:50:07.755Z,61.11
2017-08-09T13:51:17.832Z,61.11
2017-08-09T13:52:28.208Z,61.3
2017-08-09T13:53:38.566Z,61.3
2017-08-09T13:54:48.919Z,61.5
2017-08-09T13:55:59.334Z,61.3
2017-08-09T13:57:10.127Z,61.3
2017-08-09T13:58:20.494Z,61.4
2017-08-09T13:59:30.865Z,61.5
2017-08-09T14:00:41.213Z,61.4
2017-08-09T14:01:51.613Z,61.4
2017-08-09T14:03:01.974Z,61.21
2017-08-09T14:04:12.330Z,61.27
2017-08-09T14:05:22.678Z,61.5
2017-08-09T14:06:32.731Z,61.21
2017-08-09T14:07:43.129Z,61.67
2017-08-09T14:08:53.170Z,61.21
2017-08-09T14:10:03.539Z,61.47
2017-08-09T14:11:15.093Z,61.27
2017-08-09T14:12:25.478Z,61.27
2017-08-09T14:13:34.976Z,61.27
2017-08-09T14:14:45.357Z,61.4
2017-08-09T14:15:55.400Z,61.57
2017-08-09T14:17:05.139Z,61.08
2017-08-09T14:18:15.499Z,60.88
2017-08-09T14:19:25.603Z,61.08
2017-08-09T14:20:35.976Z,61.27
2017-08-09T14:21:46.332Z,61.21
2017-08-09T14:22:56.690Z,61.4
2017-08-09T14:24:07.058Z,61.4
2017-08-09T14:25:17.467Z,61.4
2017-08-09T14:26:27.813Z,61.5
2017-08-09T14:27:38.192Z,61.96
2017-08-09T14:28:48.565Z,61.47
2017-08-09T14:29:58.926Z,61.47
2017-08-09T14:31:09.354Z,60.88
2017-08-09T14:32:19.380Z,61.37
2017-08-09T14:33:29.422Z,61.37
2017-08-09T14:34:39.149Z,61.47
2017-08-09T14:35:49.192Z,61.4
2017-08-09T14:36:59.610Z,61.27
2017-08-09T14:38:09.652Z,61.47
2017-08-09T14:39:20.045Z,61.77
2017-08-09T14:40:29.478Z,62.06
2017-08-09T14:41:39.513Z,60.98
2017-08-09T14:42:49.616Z,61.69
2017-08-09T14:43:59.976Z,61.5
2017-08-09T14:45:10.027Z,61.8
2017-08-09T14:46:20.385Z,61.8
2017-08-09T14:47:30.438Z,61.3
2017-08-09T14:48:40.840Z,62.06
2017-08-09T14:49:51.202Z,61.77
2017-08-09T14:51:01.568Z,61.77
2017-08-09T14:52:11.630Z,61.47
2017-08-09T14:53:21.983Z,61.47
2017-08-09T14:54:32.083Z,61.87
2017-08-09T14:55:42.440Z,61.83
2017-08-09T14:56:52.179Z,61.64
2017-08-09T14:58:02.554Z,61.64
2017-08-09T14:59:12.628Z,61.54
2017-08-09T15:00:22.732Z,61.64
2017-08-09T15:01:33.113Z,61.64
2017-08-09T15:02:43.471Z,61.64
2017-08-09T15:03:53.560Z,61.54
2017-08-09T15:05:03.913Z,61.44
2017-08-09T15:06:14.006Z,61.74
2017-08-09T15:07:24.368Z,61.54
2017-08-09T15:08:34.726Z,61.74
2017-08-09T15:09:45.737Z,61.93
2017-08-09T15:10:56.091Z,61.44
2017-08-09T15:12:05.890Z,61.15
2017-08-09T15:13:15.939Z,61.54
2017-08-09T15:14:25.978Z,61.54
2017-08-09T15:15:36.333Z,61.44
2017-08-09T15:16:47.335Z,61.15
2017-08-09T15:17:57.760Z,61.64
2017-08-09T15:19:08.141Z,61.64
2017-08-09T15:20:18.498Z,61.64
2017-08-09T15:21:28.894Z,61.8
2017-08-09T15:22:39.305Z,61.54
2017-08-09T15:23:50.601Z,61.51
2017-08-09T15:25:00.946Z,61.54
2017-08-09T15:26:11.317Z,61.71
2017-08-09T15:27:21.412Z,61.31
2017-08-09T15:28:31.774Z,61.61
2017-08-09T15:29:41.871Z,61.8
2017-08-09T15:30:51.952Z,62.2
2017-08-09T15:32:02.006Z,62.3
2017-08-09T15:33:12.368Z,62.2
2017-08-09T15:34:22.434Z,62.3
2017-08-09T15:35:32.852Z,62.3
2017-08-09T15:36:43.210Z,62.3
2017-08-09T15:37:53.582Z,61.9
2017-08-09T15:39:03.940Z,62.07
2017-08-09T15:40:14.000Z,61.87
2017-08-09T15:41:24.429Z,61.68